sensor_id;sensor_type;location;lat;lon;timestamp;temperature;humidity
8099;DHT22;4092;47.876;9.372;2022-10-16T00:00:39;12.30;99.90
8099;DHT22;4092;47.876;9.372;2022-10-16T00:03:07;12.30;99.90
8099;DHT22;4092;47.876;9.372;2022-10-16T00:05:40;12.30;99.90
8099;DHT22;4092;47.876;9.372;2022-10-16T00:08:08;12.20;99.90
8099;DHT22;4092;47.876;9.372;2022-10-16T00:10:35;12.30;99.90
8099;DHT22;4092;47.876;9.372;2022-10-16T00:13:03;12.30;99.90
8099;DHT22;4092;47.876;9.372;2022-10-16T00:15:30;12.30;99.90
8099;DHT22;4092;47.876;9.372;2022-10-16T00:17:59;12.30;99.90
8099;DHT22;4092;47.876;9.372;2022-10-16T00:20:26;12.30;99.90
8099;DHT22;4092;47.876;9.372;2022-10-16T00:22:54;12.30;99.90
8099;DHT22;4092;47.876;9.372;2022-10-16T00:25:21;12.30;99.90
8099;DHT22;4092;47.876;9.372;2022-10-16T00:27:48;12.30;99.90
8099;DHT22;4092;47.876;9.372;2022-10-16T00:30:15;12.40;99.90
8099;DHT22;4092;47.876;9.372;2022-10-16T00:32:42;12.30;99.90
8099;DHT22;4092;47.876;9.372;2022-10-16T00:35:09;12.30;99.90
8099;DHT22;4092;47.876;9.372;2022-10-16T00:37:36;12.30;99.90
8099;DHT22;4092;47.876;9.372;2022-10-16T00:40:06;12.40;99.90
8099;DHT22;4092;47.876;9.372;2022-10-16T00:42:33;12.40;99.90
8099;DHT22;4092;47.876;9.372;2022-10-16T00:45:00;12.40;99.90
8099;DHT22;4092;47.876;9.372;2022-10-16T00:47:30;12.40;99.90
8099;DHT22;4092;47.876;9.372;2022-10-16T00:50:01;12.40;99.90
8099;DHT22;4092;47.876;9.372;2022-10-16T00:52:31;12.40;99.90
8099;DHT22;4092;47.876;9.372;2022-10-16T00:55:00;12.40;99.90
8099;DHT22;4092;47.876;9.372;2022-10-16T00:57:30;12.40;99.90
8099;DHT22;4092;47.876;9.372;2022-10-16T00:59:57;12.40;99.90
8099;DHT22;4092;47.876;9.372;2022-10-16T01:02:25;12.50;99.90
8099;DHT22;4092;47.876;9.372;2022-10-16T01:04:53;12.50;99.90
8099;DHT22;4092;47.876;9.372;2022-10-16T01:07:30;12.50;99.90
8099;DHT22;4092;47.876;9.372;2022-10-16T01:10:16;12.70;99.90
8099;DHT22;4092;47.876;9.372;2022-10-16T01:12:50;12.60;99.90
8099;DHT22;4092;47.876;9.372;2022-10-16T01:15:25;12.70;99.90
8099;DHT22;4092;47.876;9.372;2022-10-16T01:17:58;12.70;99.90
8099;DHT22;4092;47.876;9.372;2022-10-16T01:20:29;12.70;99.90
8099;DHT22;4092;47.876;9.372;2022-10-16T01:23:04;12.80;99.90
8099;DHT22;4092;47.876;9.372;2022-10-16T01:25:47;12.80;99.90
8099;DHT22;4092;47.876;9.372;2022-10-16T01:28:22;12.80;99.90
8099;DHT22;4092;47.876;9.372;2022-10-16T01:30:51;12.80;99.90
8099;DHT22;4092;47.876;9.372;2022-10-16T01:33:22;12.80;99.90
8099;DHT22;4092;47.876;9.372;2022-10-16T01:35:53;12.90;99.90
8099;DHT22;4092;47.876;9.372;2022-10-16T01:38:26;12.90;99.90
8099;DHT22;4092;47.876;9.372;2022-10-16T01:41:09;12.90;99.90
8099;DHT22;4092;47.876;9.372;2022-10-16T01:43:40;12.90;99.90
8099;DHT22;4092;47.876;9.372;2022-10-16T01:46:10;12.90;99.90
8099;DHT22;4092;47.876;9.372;2022-10-16T01:48:37;12.90;99.90
8099;DHT22;4092;47.876;9.372;2022-10-16T01:51:07;13.00;99.90
8099;DHT22;4092;47.876;9.372;2022-10-16T01:53:36;12.90;99.90
8099;DHT22;4092;47.876;9.372;2022-10-16T01:56:06;12.90;99.90
8099;DHT22;4092;47.876;9.372;2022-10-16T01:58:40;12.90;99.90
8099;DHT22;4092;47.876;9.372;2022-10-16T02:01:10;12.90;99.90
8099;DHT22;4092;47.876;9.372;2022-10-16T02:03:40;13.00;99.90
8099;DHT22;4092;47.876;9.372;2022-10-16T02:06:09;13.00;99.90
8099;DHT22;4092;47.876;9.372;2022-10-16T02:08:36;13.10;99.90
8099;DHT22;4092;47.876;9.372;2022-10-16T02:11:06;13.10;99.90
8099;DHT22;4092;47.876;9.372;2022-10-16T02:13:39;13.10;99.90
8099;DHT22;4092;47.876;9.372;2022-10-16T02:16:09;13.20;99.90
8099;DHT22;4092;47.876;9.372;2022-10-16T02:18:37;13.30;99.90
8099;DHT22;4092;47.876;9.372;2022-10-16T02:21:09;13.30;99.90
8099;DHT22;4092;47.876;9.372;2022-10-16T02:23:42;13.20;99.90
8099;DHT22;4092;47.876;9.372;2022-10-16T02:26:15;13.20;99.90
8099;DHT22;4092;47.876;9.372;2022-10-16T02:28:48;13.20;99.90
8099;DHT22;4092;47.876;9.372;2022-10-16T02:31:26;13.20;99.90
8099;DHT22;4092;47.876;9.372;2022-10-16T02:33:57;13.10;99.90
8099;DHT22;4092;47.876;9.372;2022-10-16T02:36:25;13.10;99.90
8099;DHT22;4092;47.876;9.372;2022-10-16T02:38:53;13.20;99.90
8099;DHT22;4092;47.876;9.372;2022-10-16T02:41:21;13.10;99.90
8099;DHT22;4092;47.876;9.372;2022-10-16T02:43:51;13.10;99.90
8099;DHT22;4092;47.876;9.372;2022-10-16T02:46:18;13.10;99.90
8099;DHT22;4092;47.876;9.372;2022-10-16T02:48:45;13.20;99.90
8099;DHT22;4092;47.876;9.372;2022-10-16T02:51:12;13.20;99.90
8099;DHT22;4092;47.876;9.372;2022-10-16T02:53:39;13.10;99.90
8099;DHT22;4092;47.876;9.372;2022-10-16T02:56:07;13.10;99.90
8099;DHT22;4092;47.876;9.372;2022-10-16T02:58:34;13.00;99.90
8099;DHT22;4092;47.876;9.372;2022-10-16T03:01:02;13.00;99.90
8099;DHT22;4092;47.876;9.372;2022-10-16T03:03:29;12.90;99.90
8099;DHT22;4092;47.876;9.372;2022-10-16T03:05:56;12.90;99.90
8099;DHT22;4092;47.876;9.372;2022-10-16T03:08:23;12.90;99.90
8099;DHT22;4092;47.876;9.372;2022-10-16T03:10:51;12.80;99.90
8099;DHT22;4092;47.876;9.372;2022-10-16T03:13:18;12.80;99.90
8099;DHT22;4092;47.876;9.372;2022-10-16T03:15:46;12.80;99.90
8099;DHT22;4092;47.876;9.372;2022-10-16T03:18:15;12.80;99.90
8099;DHT22;4092;47.876;9.372;2022-10-16T03:20:42;12.70;99.90
8099;DHT22;4092;47.876;9.372;2022-10-16T03:23:10;12.70;99.90
8099;DHT22;4092;47.876;9.372;2022-10-16T03:25:37;12.70;99.90
8099;DHT22;4092;47.876;9.372;2022-10-16T03:28:04;12.70;99.90
8099;DHT22;4092;47.876;9.372;2022-10-16T03:30:31;12.70;99.90
8099;DHT22;4092;47.876;9.372;2022-10-16T03:32:58;12.70;99.90
8099;DHT22;4092;47.876;9.372;2022-10-16T03:35:26;12.70;99.90
8099;DHT22;4092;47.876;9.372;2022-10-16T03:37:53;12.80;99.90
8099;DHT22;4092;47.876;9.372;2022-10-16T03:40:20;12.80;99.90
8099;DHT22;4092;47.876;9.372;2022-10-16T03:42:47;12.90;99.90
8099;DHT22;4092;47.876;9.372;2022-10-16T03:45:14;12.90;99.90
8099;DHT22;4092;47.876;9.372;2022-10-16T03:47:41;12.90;99.90
8099;DHT22;4092;47.876;9.372;2022-10-16T03:50:09;12.90;99.90
8099;DHT22;4092;47.876;9.372;2022-10-16T03:52:37;13.00;99.90
8099;DHT22;4092;47.876;9.372;2022-10-16T03:55:05;13.00;99.90
8099;DHT22;4092;47.876;9.372;2022-10-16T03:57:32;13.10;99.90
8099;DHT22;4092;47.876;9.372;2022-10-16T03:59:59;13.10;99.90
8099;DHT22;4092;47.876;9.372;2022-10-16T04:02:26;13.10;99.90
8099;DHT22;4092;47.876;9.372;2022-10-16T04:04:53;13.00;99.90
8099;DHT22;4092;47.876;9.372;2022-10-16T04:07:20;13.00;99.90
8099;DHT22;4092;47.876;9.372;2022-10-16T04:09:48;13.10;99.90
8099;DHT22;4092;47.876;9.372;2022-10-16T04:12:17;13.10;99.90
8099;DHT22;4092;47.876;9.372;2022-10-16T04:14:44;13.00;99.90
8099;DHT22;4092;47.876;9.372;2022-10-16T04:17:11;12.90;99.90
8099;DHT22;4092;47.876;9.372;2022-10-16T04:19:38;12.90;99.90
8099;DHT22;4092;47.876;9.372;2022-10-16T04:22:05;12.80;99.90
8099;DHT22;4092;47.876;9.372;2022-10-16T04:24:32;12.80;99.90
8099;DHT22;4092;47.876;9.372;2022-10-16T04:27:01;12.70;99.90
8099;DHT22;4092;47.876;9.372;2022-10-16T04:29:28;12.70;99.90
8099;DHT22;4092;47.876;9.372;2022-10-16T04:31:55;12.60;99.90
8099;DHT22;4092;47.876;9.372;2022-10-16T04:34:22;12.60;99.90
8099;DHT22;4092;47.876;9.372;2022-10-16T04:36:49;12.60;99.90
8099;DHT22;4092;47.876;9.372;2022-10-16T04:39:16;12.60;99.90
8099;DHT22;4092;47.876;9.372;2022-10-16T04:41:43;12.60;99.90
8099;DHT22;4092;47.876;9.372;2022-10-16T04:44:11;12.60;99.90
8099;DHT22;4092;47.876;9.372;2022-10-16T04:46:38;12.60;99.90
8099;DHT22;4092;47.876;9.372;2022-10-16T04:49:05;12.50;99.90
8099;DHT22;4092;47.876;9.372;2022-10-16T04:51:33;12.50;99.90
8099;DHT22;4092;47.876;9.372;2022-10-16T04:53:59;12.60;99.90
8099;DHT22;4092;47.876;9.372;2022-10-16T04:56:26;12.60;99.90
8099;DHT22;4092;47.876;9.372;2022-10-16T04:58:53;12.60;99.90
8099;DHT22;4092;47.876;9.372;2022-10-16T05:01:22;12.60;99.90
8099;DHT22;4092;47.876;9.372;2022-10-16T05:03:49;12.60;99.90
8099;DHT22;4092;47.876;9.372;2022-10-16T05:06:16;12.60;99.90
8099;DHT22;4092;47.876;9.372;2022-10-16T05:08:43;12.60;99.90
8099;DHT22;4092;47.876;9.372;2022-10-16T05:11:10;12.60;99.90
8099;DHT22;4092;47.876;9.372;2022-10-16T05:13:37;12.60;99.90
8099;DHT22;4092;47.876;9.372;2022-10-16T05:16:04;12.60;99.90
8099;DHT22;4092;47.876;9.372;2022-10-16T05:18:33;12.70;99.90
8099;DHT22;4092;47.876;9.372;2022-10-16T05:21:00;12.70;99.90
8099;DHT22;4092;47.876;9.372;2022-10-16T05:23:27;12.80;99.90
8099;DHT22;4092;47.876;9.372;2022-10-16T05:25:54;12.90;99.90
8099;DHT22;4092;47.876;9.372;2022-10-16T05:28:23;12.90;99.90
8099;DHT22;4092;47.876;9.372;2022-10-16T05:30:51;12.90;99.90
8099;DHT22;4092;47.876;9.372;2022-10-16T05:33:20;13.00;99.90
8099;DHT22;4092;47.876;9.372;2022-10-16T05:35:48;13.00;99.90
8099;DHT22;4092;47.876;9.372;2022-10-16T05:38:15;13.00;99.90
8099;DHT22;4092;47.876;9.372;2022-10-16T05:40:42;13.00;99.90
8099;DHT22;4092;47.876;9.372;2022-10-16T05:43:09;13.00;99.90
8099;DHT22;4092;47.876;9.372;2022-10-16T05:45:36;13.20;99.90
8099;DHT22;4092;47.876;9.372;2022-10-16T05:48:04;13.20;99.90
8099;DHT22;4092;47.876;9.372;2022-10-16T05:50:34;13.30;99.90
8099;DHT22;4092;47.876;9.372;2022-10-16T05:53:03;13.30;99.90
8099;DHT22;4092;47.876;9.372;2022-10-16T05:55:30;13.40;99.90
8099;DHT22;4092;47.876;9.372;2022-10-16T05:57:58;13.40;99.90
8099;DHT22;4092;47.876;9.372;2022-10-16T06:00:25;13.50;99.90
8099;DHT22;4092;47.876;9.372;2022-10-16T06:02:53;13.60;99.90
8099;DHT22;4092;47.876;9.372;2022-10-16T06:05:20;13.70;99.90
8099;DHT22;4092;47.876;9.372;2022-10-16T06:07:47;13.70;99.90
8099;DHT22;4092;47.876;9.372;2022-10-16T06:10:16;13.70;99.90
8099;DHT22;4092;47.876;9.372;2022-10-16T06:12:43;13.70;99.90
8099;DHT22;4092;47.876;9.372;2022-10-16T06:15:10;13.80;99.90
8099;DHT22;4092;47.876;9.372;2022-10-16T06:17:37;13.80;99.90
8099;DHT22;4092;47.876;9.372;2022-10-16T06:20:04;13.80;99.90
8099;DHT22;4092;47.876;9.372;2022-10-16T06:22:32;13.80;99.90
8099;DHT22;4092;47.876;9.372;2022-10-16T06:24:59;13.90;99.90
8099;DHT22;4092;47.876;9.372;2022-10-16T06:27:27;13.90;99.90
8099;DHT22;4092;47.876;9.372;2022-10-16T06:29:54;14.00;99.90
8099;DHT22;4092;47.876;9.372;2022-10-16T06:32:21;14.00;99.90
8099;DHT22;4092;47.876;9.372;2022-10-16T06:34:48;14.00;99.90
8099;DHT22;4092;47.876;9.372;2022-10-16T06:37:15;14.00;99.90
8099;DHT22;4092;47.876;9.372;2022-10-16T06:39:42;14.00;99.90
8099;DHT22;4092;47.876;9.372;2022-10-16T06:42:09;14.10;99.90
8099;DHT22;4092;47.876;9.372;2022-10-16T06:44:37;14.20;99.90
8099;DHT22;4092;47.876;9.372;2022-10-16T06:47:04;14.30;99.90
8099;DHT22;4092;47.876;9.372;2022-10-16T06:49:31;14.30;99.90
8099;DHT22;4092;47.876;9.372;2022-10-16T06:51:58;14.30;99.90
8099;DHT22;4092;47.876;9.372;2022-10-16T06:54:25;14.40;99.90
8099;DHT22;4092;47.876;9.372;2022-10-16T06:56:52;14.40;99.90
8099;DHT22;4092;47.876;9.372;2022-10-16T06:59:20;14.40;99.90
8099;DHT22;4092;47.876;9.372;2022-10-16T07:01:48;14.40;99.90
8099;DHT22;4092;47.876;9.372;2022-10-16T07:04:15;14.40;99.90
8099;DHT22;4092;47.876;9.372;2022-10-16T07:06:42;14.40;99.90
8099;DHT22;4092;47.876;9.372;2022-10-16T07:09:10;14.40;99.90
8099;DHT22;4092;47.876;9.372;2022-10-16T07:11:39;14.40;99.90
8099;DHT22;4092;47.876;9.372;2022-10-16T07:14:15;14.40;99.90
8099;DHT22;4092;47.876;9.372;2022-10-16T07:16:42;14.40;99.90
8099;DHT22;4092;47.876;9.372;2022-10-16T07:19:11;14.40;99.90
8099;DHT22;4092;47.876;9.372;2022-10-16T07:21:41;14.30;99.90
8099;DHT22;4092;47.876;9.372;2022-10-16T07:24:12;14.30;99.90
8099;DHT22;4092;47.876;9.372;2022-10-16T07:26:40;14.40;99.90
8099;DHT22;4092;47.876;9.372;2022-10-16T07:29:09;14.40;99.90
8099;DHT22;4092;47.876;9.372;2022-10-16T07:31:39;14.50;99.90
8099;DHT22;4092;47.876;9.372;2022-10-16T07:34:06;14.50;99.90
8099;DHT22;4092;47.876;9.372;2022-10-16T07:36:34;14.60;99.90
8099;DHT22;4092;47.876;9.372;2022-10-16T07:39:01;14.60;99.90
8099;DHT22;4092;47.876;9.372;2022-10-16T07:41:28;14.70;99.90
8099;DHT22;4092;47.876;9.372;2022-10-16T07:43:56;14.80;99.90
8099;DHT22;4092;47.876;9.372;2022-10-16T07:46:25;14.90;99.90
8099;DHT22;4092;47.876;9.372;2022-10-16T07:48:53;15.00;99.90
8099;DHT22;4092;47.876;9.372;2022-10-16T07:51:22;15.10;99.90
8099;DHT22;4092;47.876;9.372;2022-10-16T07:53:51;15.30;99.90
8099;DHT22;4092;47.876;9.372;2022-10-16T07:56:20;15.40;99.90
8099;DHT22;4092;47.876;9.372;2022-10-16T07:58:47;15.60;99.90
8099;DHT22;4092;47.876;9.372;2022-10-16T08:01:16;15.70;99.90
8099;DHT22;4092;47.876;9.372;2022-10-16T08:03:45;15.90;99.90
8099;DHT22;4092;47.876;9.372;2022-10-16T08:06:12;15.90;99.90
8099;DHT22;4092;47.876;9.372;2022-10-16T08:08:39;16.00;99.90
8099;DHT22;4092;47.876;9.372;2022-10-16T08:11:12;16.00;99.90
8099;DHT22;4092;47.876;9.372;2022-10-16T08:13:40;16.10;99.90
8099;DHT22;4092;47.876;9.372;2022-10-16T08:16:12;16.20;99.90
8099;DHT22;4092;47.876;9.372;2022-10-16T08:18:42;16.20;99.90
8099;DHT22;4092;47.876;9.372;2022-10-16T08:21:14;16.30;99.90
8099;DHT22;4092;47.876;9.372;2022-10-16T08:23:41;16.30;99.90
8099;DHT22;4092;47.876;9.372;2022-10-16T08:26:10;16.40;99.90
8099;DHT22;4092;47.876;9.372;2022-10-16T08:28:39;16.50;99.90
8099;DHT22;4092;47.876;9.372;2022-10-16T08:31:08;16.50;99.90
8099;DHT22;4092;47.876;9.372;2022-10-16T08:33:36;16.60;99.90
8099;DHT22;4092;47.876;9.372;2022-10-16T08:36:05;16.60;99.90
8099;DHT22;4092;47.876;9.372;2022-10-16T08:38:35;16.60;99.90
8099;DHT22;4092;47.876;9.372;2022-10-16T08:41:21;16.70;99.90
8099;DHT22;4092;47.876;9.372;2022-10-16T08:44:15;16.80;99.90
8099;DHT22;4092;47.876;9.372;2022-10-16T08:46:53;16.80;99.90
8099;DHT22;4092;47.876;9.372;2022-10-16T08:49:21;17.00;99.90
8099;DHT22;4092;47.876;9.372;2022-10-16T08:51:50;17.10;99.90
8099;DHT22;4092;47.876;9.372;2022-10-16T08:54:28;17.10;99.90
8099;DHT22;4092;47.876;9.372;2022-10-16T08:56:56;17.20;99.90
8099;DHT22;4092;47.876;9.372;2022-10-16T08:59:26;17.30;99.90
8099;DHT22;4092;47.876;9.372;2022-10-16T09:01:53;17.30;99.90
8099;DHT22;4092;47.876;9.372;2022-10-16T09:04:44;17.30;99.90
8099;DHT22;4092;47.876;9.372;2022-10-16T09:07:19;17.30;99.90
8099;DHT22;4092;47.876;9.372;2022-10-16T09:10:06;17.30;99.90
8099;DHT22;4092;47.876;9.372;2022-10-16T09:12:52;17.30;99.90
8099;DHT22;4092;47.876;9.372;2022-10-16T09:15:27;17.20;99.90
8099;DHT22;4092;47.876;9.372;2022-10-16T09:18:02;17.20;99.90
8099;DHT22;4092;47.876;9.372;2022-10-16T09:20:35;17.30;99.90
8099;DHT22;4092;47.876;9.372;2022-10-16T09:23:22;17.50;99.90
8099;DHT22;4092;47.876;9.372;2022-10-16T09:25:50;17.70;99.90
8099;DHT22;4092;47.876;9.372;2022-10-16T09:28:18;17.80;99.90
8099;DHT22;4092;47.876;9.372;2022-10-16T09:30:47;17.90;99.90
8099;DHT22;4092;47.876;9.372;2022-10-16T09:33:17;18.10;99.90
8099;DHT22;4092;47.876;9.372;2022-10-16T09:35:47;18.20;99.90
8099;DHT22;4092;47.876;9.372;2022-10-16T09:38:26;18.30;99.90
8099;DHT22;4092;47.876;9.372;2022-10-16T09:40:55;18.40;99.90
8099;DHT22;4092;47.876;9.372;2022-10-16T09:43:25;18.50;99.90
8099;DHT22;4092;47.876;9.372;2022-10-16T09:46:00;18.50;99.90
8099;DHT22;4092;47.876;9.372;2022-10-16T09:48:31;18.60;99.90
8099;DHT22;4092;47.876;9.372;2022-10-16T09:51:03;18.70;99.90
8099;DHT22;4092;47.876;9.372;2022-10-16T09:53:41;18.90;99.90
8099;DHT22;4092;47.876;9.372;2022-10-16T09:56:11;19.10;99.90
8099;DHT22;4092;47.876;9.372;2022-10-16T09:58:43;19.10;99.90
8099;DHT22;4092;47.876;9.372;2022-10-16T10:01:15;19.20;99.90
8099;DHT22;4092;47.876;9.372;2022-10-16T10:03:43;19.40;99.90
8099;DHT22;4092;47.876;9.372;2022-10-16T10:06:21;19.40;99.90
8099;DHT22;4092;47.876;9.372;2022-10-16T10:09:01;19.40;99.90
8099;DHT22;4092;47.876;9.372;2022-10-16T10:11:39;19.40;99.90
8099;DHT22;4092;47.876;9.372;2022-10-16T10:14:16;19.60;99.90
8099;DHT22;4092;47.876;9.372;2022-10-16T10:16:45;19.60;99.90
8099;DHT22;4092;47.876;9.372;2022-10-16T10:19:17;19.60;99.90
8099;DHT22;4092;47.876;9.372;2022-10-16T10:21:44;19.70;99.90
8099;DHT22;4092;47.876;9.372;2022-10-16T10:24:13;20.00;99.90
8099;DHT22;4092;47.876;9.372;2022-10-16T10:26:48;20.30;99.90
8099;DHT22;4092;47.876;9.372;2022-10-16T10:29:22;20.50;99.90
8099;DHT22;4092;47.876;9.372;2022-10-16T10:32:00;20.60;99.90
8099;DHT22;4092;47.876;9.372;2022-10-16T10:34:47;20.70;99.90
8099;DHT22;4092;47.876;9.372;2022-10-16T10:37:29;20.60;99.90
8099;DHT22;4092;47.876;9.372;2022-10-16T10:40:05;20.70;99.90
8099;DHT22;4092;47.876;9.372;2022-10-16T10:42:40;20.80;99.90
8099;DHT22;4092;47.876;9.372;2022-10-16T10:45:21;21.00;99.90
8099;DHT22;4092;47.876;9.372;2022-10-16T10:48:03;21.10;99.90
8099;DHT22;4092;47.876;9.372;2022-10-16T10:50:39;21.10;99.90
8099;DHT22;4092;47.876;9.372;2022-10-16T10:53:21;21.10;99.90
8099;DHT22;4092;47.876;9.372;2022-10-16T10:55:54;21.20;99.90
8099;DHT22;4092;47.876;9.372;2022-10-16T10:59:04;21.20;99.90
8099;DHT22;4092;47.876;9.372;2022-10-16T11:01:40;21.20;99.90
8099;DHT22;4092;47.876;9.372;2022-10-16T11:04:39;21.40;99.90
8099;DHT22;4092;47.876;9.372;2022-10-16T11:07:15;21.30;99.90
8099;DHT22;4092;47.876;9.372;2022-10-16T11:09:47;21.50;99.90
8099;DHT22;4092;47.876;9.372;2022-10-16T11:12:18;21.70;99.90
8099;DHT22;4092;47.876;9.372;2022-10-16T11:14:50;21.90;99.90
8099;DHT22;4092;47.876;9.372;2022-10-16T11:17:23;22.10;99.90
8099;DHT22;4092;47.876;9.372;2022-10-16T11:19:55;22.20;99.90
8099;DHT22;4092;47.876;9.372;2022-10-16T11:22:29;22.30;99.90
8099;DHT22;4092;47.876;9.372;2022-10-16T11:25:02;22.40;99.90
8099;DHT22;4092;47.876;9.372;2022-10-16T11:27:36;22.30;99.90
8099;DHT22;4092;47.876;9.372;2022-10-16T11:30:16;22.30;99.90
8099;DHT22;4092;47.876;9.372;2022-10-16T11:35:39;22.00;99.90
8099;DHT22;4092;47.876;9.372;2022-10-16T11:38:14;22.00;99.90
8099;DHT22;4092;47.876;9.372;2022-10-16T11:40:43;22.00;99.90
8099;DHT22;4092;47.876;9.372;2022-10-16T11:43:17;22.10;99.90
8099;DHT22;4092;47.876;9.372;2022-10-16T11:45:49;22.20;99.90
8099;DHT22;4092;47.876;9.372;2022-10-16T11:48:25;22.30;99.90
8099;DHT22;4092;47.876;9.372;2022-10-16T11:50:58;22.20;99.90
8099;DHT22;4092;47.876;9.372;2022-10-16T11:53:38;22.20;99.90
8099;DHT22;4092;47.876;9.372;2022-10-16T11:56:12;22.30;99.90
8099;DHT22;4092;47.876;9.372;2022-10-16T11:58:44;22.40;99.90
8099;DHT22;4092;47.876;9.372;2022-10-16T12:01:18;22.40;99.90
8099;DHT22;4092;47.876;9.372;2022-10-16T12:04:00;22.40;99.90
8099;DHT22;4092;47.876;9.372;2022-10-16T12:06:34;22.40;99.90
8099;DHT22;4092;47.876;9.372;2022-10-16T12:09:03;22.40;99.90
8099;DHT22;4092;47.876;9.372;2022-10-16T12:11:36;22.20;99.90
8099;DHT22;4092;47.876;9.372;2022-10-16T12:16:55;21.80;99.90
8099;DHT22;4092;47.876;9.372;2022-10-16T12:19:24;21.80;99.90
8099;DHT22;4092;47.876;9.372;2022-10-16T12:21:56;21.80;99.90
8099;DHT22;4092;47.876;9.372;2022-10-16T12:24:34;21.90;99.90
8099;DHT22;4092;47.876;9.372;2022-10-16T12:27:02;22.00;99.90
8099;DHT22;4092;47.876;9.372;2022-10-16T12:29:34;22.10;99.90
8099;DHT22;4092;47.876;9.372;2022-10-16T12:32:04;22.30;99.90
8099;DHT22;4092;47.876;9.372;2022-10-16T12:34:38;22.40;99.90
8099;DHT22;4092;47.876;9.372;2022-10-16T12:37:18;22.60;99.90
8099;DHT22;4092;47.876;9.372;2022-10-16T12:39:47;22.90;99.90
8099;DHT22;4092;47.876;9.372;2022-10-16T12:42:23;22.90;99.90
8099;DHT22;4092;47.876;9.372;2022-10-16T12:44:50;22.80;99.90
8099;DHT22;4092;47.876;9.372;2022-10-16T12:47:22;22.80;99.90
8099;DHT22;4092;47.876;9.372;2022-10-16T12:49:51;22.80;99.90
8099;DHT22;4092;47.876;9.372;2022-10-16T12:52:37;22.80;99.90
8099;DHT22;4092;47.876;9.372;2022-10-16T12:55:05;22.80;99.90
8099;DHT22;4092;47.876;9.372;2022-10-16T12:57:46;22.90;99.90
8099;DHT22;4092;47.876;9.372;2022-10-16T13:00:26;23.00;99.90
8099;DHT22;4092;47.876;9.372;2022-10-16T13:06:14;23.20;99.90
8099;DHT22;4092;47.876;9.372;2022-10-16T13:09:07;23.10;99.90
8099;DHT22;4092;47.876;9.372;2022-10-16T13:11:57;22.90;99.90
8099;DHT22;4092;47.876;9.372;2022-10-16T13:17:26;22.90;99.90
8099;DHT22;4092;47.876;9.372;2022-10-16T13:20:02;23.00;99.90
8099;DHT22;4092;47.876;9.372;2022-10-16T13:22:35;23.00;99.90
8099;DHT22;4092;47.876;9.372;2022-10-16T13:25:20;23.10;99.90
8099;DHT22;4092;47.876;9.372;2022-10-16T13:27:53;23.20;99.90
8099;DHT22;4092;47.876;9.372;2022-10-16T13:30:33;23.40;99.90
8099;DHT22;4092;47.876;9.372;2022-10-16T13:33:03;23.50;99.90
8099;DHT22;4092;47.876;9.372;2022-10-16T13:35:32;23.60;99.90
8099;DHT22;4092;47.876;9.372;2022-10-16T13:38:14;23.80;99.90
8099;DHT22;4092;47.876;9.372;2022-10-16T13:40:54;23.80;99.90
8099;DHT22;4092;47.876;9.372;2022-10-16T13:43:24;23.70;99.90
8099;DHT22;4092;47.876;9.372;2022-10-16T13:45:54;23.90;99.90
8099;DHT22;4092;47.876;9.372;2022-10-16T13:48:22;23.90;99.90
8099;DHT22;4092;47.876;9.372;2022-10-16T13:50:59;24.00;99.90
8099;DHT22;4092;47.876;9.372;2022-10-16T13:53:26;23.90;99.90
8099;DHT22;4092;47.876;9.372;2022-10-16T13:55:54;23.80;99.90
8099;DHT22;4092;47.876;9.372;2022-10-16T13:58:22;23.60;99.90
8099;DHT22;4092;47.876;9.372;2022-10-16T14:01:00;23.50;99.90
8099;DHT22;4092;47.876;9.372;2022-10-16T14:03:28;23.40;99.90
8099;DHT22;4092;47.876;9.372;2022-10-16T14:05:59;23.30;99.90
8099;DHT22;4092;47.876;9.372;2022-10-16T14:08:27;23.30;99.90
8099;DHT22;4092;47.876;9.372;2022-10-16T14:10:58;23.40;99.90
8099;DHT22;4092;47.876;9.372;2022-10-16T14:13:30;23.50;99.90
8099;DHT22;4092;47.876;9.372;2022-10-16T14:16:01;23.50;99.90
8099;DHT22;4092;47.876;9.372;2022-10-16T14:18:29;23.60;99.90
8099;DHT22;4092;47.876;9.372;2022-10-16T14:21:03;23.60;99.90
8099;DHT22;4092;47.876;9.372;2022-10-16T14:23:33;23.70;99.90
8099;DHT22;4092;47.876;9.372;2022-10-16T14:26:12;23.70;99.90
8099;DHT22;4092;47.876;9.372;2022-10-16T14:28:41;23.60;99.90
8099;DHT22;4092;47.876;9.372;2022-10-16T14:31:24;23.70;99.90
8099;DHT22;4092;47.876;9.372;2022-10-16T14:33:51;23.90;99.90
8099;DHT22;4092;47.876;9.372;2022-10-16T14:36:18;24.10;99.90
8099;DHT22;4092;47.876;9.372;2022-10-16T14:38:51;24.10;99.90
8099;DHT22;4092;47.876;9.372;2022-10-16T14:41:22;24.00;99.90
8099;DHT22;4092;47.876;9.372;2022-10-16T14:43:52;23.80;99.90
8099;DHT22;4092;47.876;9.372;2022-10-16T14:46:22;23.60;99.90
8099;DHT22;4092;47.876;9.372;2022-10-16T14:48:56;23.50;99.90
8099;DHT22;4092;47.876;9.372;2022-10-16T14:51:26;23.60;99.90
8099;DHT22;4092;47.876;9.372;2022-10-16T14:53:53;23.60;99.90
8099;DHT22;4092;47.876;9.372;2022-10-16T14:56:24;23.70;99.90
8099;DHT22;4092;47.876;9.372;2022-10-16T14:58:51;23.60;99.90
8099;DHT22;4092;47.876;9.372;2022-10-16T15:01:19;23.60;99.90
8099;DHT22;4092;47.876;9.372;2022-10-16T15:03:46;23.60;99.90
8099;DHT22;4092;47.876;9.372;2022-10-16T15:06:16;23.50;99.90
8099;DHT22;4092;47.876;9.372;2022-10-16T15:08:43;23.50;99.90
8099;DHT22;4092;47.876;9.372;2022-10-16T15:11:13;23.50;99.90
8099;DHT22;4092;47.876;9.372;2022-10-16T15:13:43;23.60;99.90
8099;DHT22;4092;47.876;9.372;2022-10-16T15:16:11;23.70;99.90
8099;DHT22;4092;47.876;9.372;2022-10-16T15:18:38;24.00;99.90
8099;DHT22;4092;47.876;9.372;2022-10-16T15:21:06;24.40;99.90
8099;DHT22;4092;47.876;9.372;2022-10-16T15:23:35;24.40;99.90
8099;DHT22;4092;47.876;9.372;2022-10-16T15:26:02;24.30;99.90
8099;DHT22;4092;47.876;9.372;2022-10-16T15:28:29;24.50;99.90
8099;DHT22;4092;47.876;9.372;2022-10-16T15:30:58;25.00;99.90
8099;DHT22;4092;47.876;9.372;2022-10-16T15:33:27;25.30;99.90
8099;DHT22;4092;47.876;9.372;2022-10-16T15:35:58;25.40;99.90
8099;DHT22;4092;47.876;9.372;2022-10-16T15:38:28;25.60;99.90
8099;DHT22;4092;47.876;9.372;2022-10-16T15:40:56;25.40;99.90
8099;DHT22;4092;47.876;9.372;2022-10-16T15:43:23;25.30;99.90
8099;DHT22;4092;47.876;9.372;2022-10-16T15:46:00;25.00;99.90
8099;DHT22;4092;47.876;9.372;2022-10-16T15:48:30;24.80;99.90
8099;DHT22;4092;47.876;9.372;2022-10-16T15:50:58;24.40;99.90
8099;DHT22;4092;47.876;9.372;2022-10-16T15:53:26;23.70;99.90
8099;DHT22;4092;47.876;9.372;2022-10-16T15:55:53;23.30;99.90
8099;DHT22;4092;47.876;9.372;2022-10-16T15:58:20;22.70;99.90
8099;DHT22;4092;47.876;9.372;2022-10-16T16:00:54;22.20;99.90
8099;DHT22;4092;47.876;9.372;2022-10-16T16:03:24;21.70;99.90
8099;DHT22;4092;47.876;9.372;2022-10-16T16:05:52;21.40;99.90
8099;DHT22;4092;47.876;9.372;2022-10-16T16:08:19;21.00;99.90
8099;DHT22;4092;47.876;9.372;2022-10-16T16:10:46;20.60;99.90
8099;DHT22;4092;47.876;9.372;2022-10-16T16:13:26;20.30;99.90
8099;DHT22;4092;47.876;9.372;2022-10-16T16:15:55;20.00;99.90
8099;DHT22;4092;47.876;9.372;2022-10-16T16:18:24;19.90;99.90
8099;DHT22;4092;47.876;9.372;2022-10-16T16:20:51;19.50;99.90
8099;DHT22;4092;47.876;9.372;2022-10-16T16:23:21;19.30;99.90
8099;DHT22;4092;47.876;9.372;2022-10-16T16:26:03;19.00;99.90
8099;DHT22;4092;47.876;9.372;2022-10-16T16:28:30;18.70;99.90
8099;DHT22;4092;47.876;9.372;2022-10-16T16:30:57;18.60;99.90
8099;DHT22;4092;47.876;9.372;2022-10-16T16:33:27;18.40;99.90
8099;DHT22;4092;47.876;9.372;2022-10-16T16:35:58;18.30;99.90